CheckWX is a tool to help pilots better visualize weather data.  It is not intended as a substitute for an official pre-flight weather briefing.

11:07:03 UTC

M19 METAR
Newport Regional Airport
Newport, Arkansas, USA
Current

11 mins ago

KM19 241056Z AUTO 15005KT 10SM CLR 19/18 A3008 RMK AO2 SLP189 T01940183
Observed
May-24 @ 10:56 UTC
Wind
  • 150° at 5 KTS
Visibility
10 SM
Flight Rules
VFR
Cloud Levels
  • Clear skies
Temperature
19°C / 66°F
Dewpoint
18°C / 64°F
Humidity
94%
Altimeter
30.08" Hg
Pressure
1018.62 hPa
Previous

2 hours ago

KM19 240856Z AUTO 18005KT 10SM CLR 20/18 A3005 RMK AO2 SLP177 T02000183 53000
Observed
May-24 @ 08:56 UTC
Wind
  • 180° at 5 KTS
Visibility
10 SM
Flight Rules
VFR
Cloud Levels
  • Clear skies
Temperature
20°C / 68°F
Dewpoint
18°C / 64°F
Humidity
88%
Altimeter
30.05" Hg
Pressure
1017.62 hPa
Previous

3 hours ago

KM19 240756Z AUTO 19006KT 10SM CLR 21/18 A3004 RMK AO2 SLP175 T02060183
Observed
May-24 @ 07:56 UTC
Wind
  • 190° at 6 KTS
Visibility
10 SM
Flight Rules
VFR
Cloud Levels
  • Clear skies
Temperature
21°C / 70°F
Dewpoint
18°C / 64°F
Humidity
83%
Altimeter
30.04" Hg
Pressure
1017.32 hPa